sensor_id;sensor_type;location;lat;lon;timestamp;temperature;humidity
10231;DHT22;62604;49.432;8.680;2023-10-31T13:31:41;14.40;1.00
10231;DHT22;62604;49.432;8.680;2023-10-31T13:34:08;14.40;36.50
10231;DHT22;62604;49.432;8.680;2023-10-31T13:36:36;14.40;62.70
10231;DHT22;62604;49.432;8.680;2023-10-31T13:39:04;14.40;18.30
10231;DHT22;62604;49.432;8.680;2023-10-31T13:41:31;14.40;46.40
10231;DHT22;62604;49.432;8.680;2023-10-31T13:43:59;14.50;87.40
10231;DHT22;62604;49.432;8.680;2023-10-31T13:46:30;14.50;67.60
10231;DHT22;62604;49.432;8.680;2023-10-31T13:48:59;14.60;30.20
10231;DHT22;62604;49.432;8.680;2023-10-31T13:51:26;14.60;11.00
10231;DHT22;62604;49.432;8.680;2023-10-31T13:53:53;14.60;1.00
10231;DHT22;62604;49.432;8.680;2023-10-31T13:56:20;14.60;1.00
10231;DHT22;62604;49.432;8.680;2023-10-31T13:58:47;14.50;1.00
10231;DHT22;62604;49.432;8.680;2023-10-31T14:01:14;14.40;1.00
10231;DHT22;62604;49.432;8.680;2023-10-31T14:03:42;14.30;1.00
10231;DHT22;62604;49.432;8.680;2023-10-31T14:06:11;14.20;1.00
10231;DHT22;62604;49.432;8.680;2023-10-31T14:08:39;14.20;1.00
10231;DHT22;62604;49.432;8.680;2023-10-31T14:11:07;14.10;1.00
10231;DHT22;62604;49.432;8.680;2023-10-31T14:13:36;14.10;1.00
10231;DHT22;62604;49.432;8.680;2023-10-31T14:16:04;14.10;1.00
10231;DHT22;62604;49.432;8.680;2023-10-31T14:18:31;14.10;1.00
10231;DHT22;62604;49.432;8.680;2023-10-31T14:20:59;14.10;1.00
10231;DHT22;62604;49.432;8.680;2023-10-31T14:23:27;14.10;1.00
10231;DHT22;62604;49.432;8.680;2023-10-31T14:25:54;14.10;1.00
10231;DHT22;62604;49.432;8.680;2023-10-31T14:28:22;14.10;1.00
10231;DHT22;62604;49.432;8.680;2023-10-31T14:30:49;14.20;1.00
10231;DHT22;62604;49.432;8.680;2023-10-31T14:33:17;14.20;1.00
10231;DHT22;62604;49.432;8.680;2023-10-31T14:35:45;14.20;1.00
10231;DHT22;62604;49.432;8.680;2023-10-31T14:38:12;14.20;1.50
10231;DHT22;62604;49.432;8.680;2023-10-31T14:40:41;14.20;2.00
10231;DHT22;62604;49.432;8.680;2023-10-31T14:43:08;14.30;2.40
10231;DHT22;62604;49.432;8.680;2023-10-31T14:45:36;14.10;1.00
10231;DHT22;62604;49.432;8.680;2023-10-31T14:48:03;14.10;1.00
10231;DHT22;62604;49.432;8.680;2023-10-31T14:50:30;14.10;44.50
10231;DHT22;62604;49.432;8.680;2023-10-31T14:52:57;14.10;99.90
10231;DHT22;62604;49.432;8.680;2023-10-31T14:55:24;14.10;99.90
10231;DHT22;62604;49.432;8.680;2023-10-31T14:57:53;14.10;99.90
10231;DHT22;62604;49.432;8.680;2023-10-31T15:00:21;14.00;99.90
10231;DHT22;62604;49.432;8.680;2023-10-31T15:02:48;14.00;99.90
10231;DHT22;62604;49.432;8.680;2023-10-31T15:05:15;14.00;99.90
10231;DHT22;62604;49.432;8.680;2023-10-31T15:07:42;13.90;99.90
10231;DHT22;62604;49.432;8.680;2023-10-31T15:10:10;13.90;99.90
10231;DHT22;62604;49.432;8.680;2023-10-31T15:12:38;13.80;99.90
10231;DHT22;62604;49.432;8.680;2023-10-31T15:15:08;13.90;99.90
10231;DHT22;62604;49.432;8.680;2023-10-31T15:17:35;13.80;99.90
10231;DHT22;62604;49.432;8.680;2023-10-31T15:20:03;13.60;99.90
10231;DHT22;62604;49.432;8.680;2023-10-31T15:22:32;13.60;99.90
10231;DHT22;62604;49.432;8.680;2023-10-31T15:24:59;13.50;99.90
10231;DHT22;62604;49.432;8.680;2023-10-31T15:27:26;13.40;99.90
10231;DHT22;62604;49.432;8.680;2023-10-31T15:29:54;13.30;99.90
10231;DHT22;62604;49.432;8.680;2023-10-31T15:32:22;13.30;99.90
10231;DHT22;62604;49.432;8.680;2023-10-31T15:34:49;13.20;99.90
10231;DHT22;62604;49.432;8.680;2023-10-31T15:37:17;13.10;99.90
10231;DHT22;62604;49.432;8.680;2023-10-31T15:39:44;13.10;1.00
10231;DHT22;62604;49.432;8.680;2023-10-31T15:42:14;13.10;99.90
10231;DHT22;62604;49.432;8.680;2023-10-31T15:44:41;13.00;98.30
10231;DHT22;62604;49.432;8.680;2023-10-31T15:47:13;13.00;99.90
10231;DHT22;62604;49.432;8.680;2023-10-31T15:49:41;13.00;1.00
10231;DHT22;62604;49.432;8.680;2023-10-31T15:52:09;12.90;1.00
10231;DHT22;62604;49.432;8.680;2023-10-31T15:54:36;12.90;1.00
10231;DHT22;62604;49.432;8.680;2023-10-31T15:57:04;12.90;1.00
10231;DHT22;62604;49.432;8.680;2023-10-31T15:59:32;12.80;1.00
10231;DHT22;62604;49.432;8.680;2023-10-31T16:01:59;12.80;1.00
10231;DHT22;62604;49.432;8.680;2023-10-31T16:04:26;12.80;1.00
10231;DHT22;62604;49.432;8.680;2023-10-31T16:06:55;12.80;46.30
10231;DHT22;62604;49.432;8.680;2023-10-31T16:09:23;12.80;99.90
10231;DHT22;62604;49.432;8.680;2023-10-31T16:11:51;12.80;1.00
10231;DHT22;62604;49.432;8.680;2023-10-31T16:14:18;12.80;1.00
10231;DHT22;62604;49.432;8.680;2023-10-31T16:16:48;12.80;99.90
10231;DHT22;62604;49.432;8.680;2023-10-31T16:19:16;12.70;1.00
10231;DHT22;62604;49.432;8.680;2023-10-31T16:21:43;12.70;1.70
10231;DHT22;62604;49.432;8.680;2023-10-31T16:24:12;12.70;1.00
10231;DHT22;62604;49.432;8.680;2023-10-31T16:26:39;12.70;99.90
10231;DHT22;62604;49.432;8.680;2023-10-31T16:29:07;12.60;1.00
10231;DHT22;62604;49.432;8.680;2023-10-31T16:31:39;12.60;1.00
10231;DHT22;62604;49.432;8.680;2023-10-31T16:34:06;12.60;1.00
10231;DHT22;62604;49.432;8.680;2023-10-31T16:36:33;12.50;1.00
10231;DHT22;62604;49.432;8.680;2023-10-31T16:39:01;12.50;1.00
10231;DHT22;62604;49.432;8.680;2023-10-31T16:41:29;12.50;1.00
10231;DHT22;62604;49.432;8.680;2023-10-31T16:43:56;12.30;15.80
10231;DHT22;62604;49.432;8.680;2023-10-31T16:46:23;12.40;60.00
10231;DHT22;62604;49.432;8.680;2023-10-31T16:48:51;12.30;89.20
10231;DHT22;62604;49.432;8.680;2023-10-31T16:51:19;12.30;93.60
10231;DHT22;62604;49.432;8.680;2023-10-31T16:53:46;12.30;78.70
10231;DHT22;62604;49.432;8.680;2023-10-31T16:56:14;12.20;99.90
10231;DHT22;62604;49.432;8.680;2023-10-31T16:58:43;12.20;99.90
10231;DHT22;62604;49.432;8.680;2023-10-31T17:01:12;12.20;99.90
10231;DHT22;62604;49.432;8.680;2023-10-31T17:03:39;12.20;99.90
10231;DHT22;62604;49.432;8.680;2023-10-31T17:06:07;12.10;99.90
10231;DHT22;62604;49.432;8.680;2023-10-31T17:08:34;12.10;99.90
10231;DHT22;62604;49.432;8.680;2023-10-31T17:11:03;12.10;99.90
10231;DHT22;62604;49.432;8.680;2023-10-31T17:13:31;12.10;99.90
10231;DHT22;62604;49.432;8.680;2023-10-31T17:16:01;12.10;99.90
10231;DHT22;62604;49.432;8.680;2023-10-31T17:18:29;12.10;99.90
10231;DHT22;62604;49.432;8.680;2023-10-31T17:20:56;12.00;99.90
10231;DHT22;62604;49.432;8.680;2023-10-31T17:23:24;12.00;99.90
10231;DHT22;62604;49.432;8.680;2023-10-31T17:25:51;12.00;99.90
10231;DHT22;62604;49.432;8.680;2023-10-31T17:28:19;12.00;99.90
10231;DHT22;62604;49.432;8.680;2023-10-31T17:30:46;12.00;99.90
10231;DHT22;62604;49.432;8.680;2023-10-31T17:33:15;12.00;99.90
10231;DHT22;62604;49.432;8.680;2023-10-31T17:35:42;12.00;99.90
10231;DHT22;62604;49.432;8.680;2023-10-31T17:38:09;12.00;99.90
10231;DHT22;62604;49.432;8.680;2023-10-31T17:40:36;12.00;99.90
10231;DHT22;62604;49.432;8.680;2023-10-31T17:43:04;12.00;99.90
10231;DHT22;62604;49.432;8.680;2023-10-31T17:45:31;12.00;99.90
10231;DHT22;62604;49.432;8.680;2023-10-31T17:47:58;12.00;99.90
10231;DHT22;62604;49.432;8.680;2023-10-31T17:50:26;12.00;99.90
10231;DHT22;62604;49.432;8.680;2023-10-31T17:52:57;12.00;99.90
10231;DHT22;62604;49.432;8.680;2023-10-31T17:55:25;12.10;99.90
10231;DHT22;62604;49.432;8.680;2023-10-31T17:57:52;12.00;99.90
10231;DHT22;62604;49.432;8.680;2023-10-31T18:00:19;12.00;99.90
10231;DHT22;62604;49.432;8.680;2023-10-31T18:02:47;12.00;99.90
10231;DHT22;62604;49.432;8.680;2023-10-31T18:05:14;12.00;99.90
10231;DHT22;62604;49.432;8.680;2023-10-31T18:07:43;12.00;99.90
10231;DHT22;62604;49.432;8.680;2023-10-31T18:10:11;12.00;99.90
10231;DHT22;62604;49.432;8.680;2023-10-31T18:12:39;12.00;99.90
10231;DHT22;62604;49.432;8.680;2023-10-31T18:15:08;12.00;99.90
10231;DHT22;62604;49.432;8.680;2023-10-31T18:17:36;12.00;99.90
10231;DHT22;62604;49.432;8.680;2023-10-31T18:20:06;12.00;99.90
10231;DHT22;62604;49.432;8.680;2023-10-31T18:22:34;12.00;99.90
10231;DHT22;62604;49.432;8.680;2023-10-31T18:25:03;12.00;99.90
10231;DHT22;62604;49.432;8.680;2023-10-31T18:27:30;12.00;99.90
10231;DHT22;62604;49.432;8.680;2023-10-31T18:29:57;12.00;99.90
10231;DHT22;62604;49.432;8.680;2023-10-31T18:32:24;12.00;99.90
10231;DHT22;62604;49.432;8.680;2023-10-31T18:34:52;12.00;99.90
10231;DHT22;62604;49.432;8.680;2023-10-31T18:37:19;12.00;99.90
10231;DHT22;62604;49.432;8.680;2023-10-31T18:39:46;11.90;99.90
10231;DHT22;62604;49.432;8.680;2023-10-31T18:42:14;11.90;99.90
10231;DHT22;62604;49.432;8.680;2023-10-31T18:44:42;11.90;99.90
10231;DHT22;62604;49.432;8.680;2023-10-31T18:47:09;11.90;99.90
10231;DHT22;62604;49.432;8.680;2023-10-31T18:49:36;11.90;99.90
10231;DHT22;62604;49.432;8.680;2023-10-31T18:52:04;11.80;99.90
10231;DHT22;62604;49.432;8.680;2023-10-31T18:54:32;11.80;99.90
10231;DHT22;62604;49.432;8.680;2023-10-31T18:56:59;11.90;99.90
10231;DHT22;62604;49.432;8.680;2023-10-31T18:59:27;11.90;99.90
10231;DHT22;62604;49.432;8.680;2023-10-31T19:01:55;11.90;99.90
10231;DHT22;62604;49.432;8.680;2023-10-31T19:04:24;11.90;99.90
10231;DHT22;62604;49.432;8.680;2023-10-31T19:06:51;11.90;99.90
10231;DHT22;62604;49.432;8.680;2023-10-31T19:09:19;11.90;99.90
10231;DHT22;62604;49.432;8.680;2023-10-31T19:11:47;11.90;99.90
10231;DHT22;62604;49.432;8.680;2023-10-31T19:14:15;11.90;99.90
10231;DHT22;62604;49.432;8.680;2023-10-31T19:16:43;11.90;99.90
10231;DHT22;62604;49.432;8.680;2023-10-31T19:19:10;11.90;99.90
10231;DHT22;62604;49.432;8.680;2023-10-31T19:21:37;11.90;99.50
10231;DHT22;62604;49.432;8.680;2023-10-31T19:24:05;11.90;99.90
10231;DHT22;62604;49.432;8.680;2023-10-31T19:26:32;11.80;54.80
10231;DHT22;62604;49.432;8.680;2023-10-31T19:29:00;11.90;44.80
10231;DHT22;62604;49.432;8.680;2023-10-31T19:31:27;11.90;37.20
10231;DHT22;62604;49.432;8.680;2023-10-31T19:33:56;11.90;20.00
10231;DHT22;62604;49.432;8.680;2023-10-31T19:36:24;11.90;28.80
10231;DHT22;62604;49.432;8.680;2023-10-31T19:38:52;11.90;39.20
10231;DHT22;62604;49.432;8.680;2023-10-31T19:41:21;11.90;30.90
10231;DHT22;62604;49.432;8.680;2023-10-31T19:43:49;11.90;48.70
10231;DHT22;62604;49.432;8.680;2023-10-31T19:46:17;11.90;42.70
10231;DHT22;62604;49.432;8.680;2023-10-31T19:48:44;12.00;29.90
10231;DHT22;62604;49.432;8.680;2023-10-31T19:51:13;11.90;36.00
10231;DHT22;62604;49.432;8.680;2023-10-31T19:53:40;11.80;1.00
10231;DHT22;62604;49.432;8.680;2023-10-31T19:56:07;11.80;1.00
10231;DHT22;62604;49.432;8.680;2023-10-31T19:58:42;11.80;1.00
10231;DHT22;62604;49.432;8.680;2023-10-31T20:01:09;11.80;1.00
10231;DHT22;62604;49.432;8.680;2023-10-31T20:03:36;11.80;1.00
10231;DHT22;62604;49.432;8.680;2023-10-31T20:06:04;11.80;1.00
10231;DHT22;62604;49.432;8.680;2023-10-31T20:08:35;11.80;1.00
10231;DHT22;62604;49.432;8.680;2023-10-31T20:11:02;11.80;1.00
10231;DHT22;62604;49.432;8.680;2023-10-31T20:13:30;11.70;1.00
10231;DHT22;62604;49.432;8.680;2023-10-31T20:15:57;11.70;1.00
10231;DHT22;62604;49.432;8.680;2023-10-31T20:18:24;11.70;1.00
10231;DHT22;62604;49.432;8.680;2023-10-31T20:20:53;11.70;1.00
10231;DHT22;62604;49.432;8.680;2023-10-31T20:23:20;11.70;1.00
10231;DHT22;62604;49.432;8.680;2023-10-31T20:25:49;11.70;1.00
10231;DHT22;62604;49.432;8.680;2023-10-31T20:28:17;11.80;1.00
10231;DHT22;62604;49.432;8.680;2023-10-31T20:30:44;11.80;1.00
10231;DHT22;62604;49.432;8.680;2023-10-31T20:33:12;11.80;1.00
10231;DHT22;62604;49.432;8.680;2023-10-31T20:35:39;11.80;1.00
10231;DHT22;62604;49.432;8.680;2023-10-31T20:38:06;11.80;1.00
10231;DHT22;62604;49.432;8.680;2023-10-31T20:40:33;11.80;1.00
10231;DHT22;62604;49.432;8.680;2023-10-31T20:43:02;11.80;1.00
10231;DHT22;62604;49.432;8.680;2023-10-31T20:45:29;11.80;1.00
10231;DHT22;62604;49.432;8.680;2023-10-31T20:47:57;11.80;1.00
10231;DHT22;62604;49.432;8.680;2023-10-31T20:50:24;11.80;1.00
10231;DHT22;62604;49.432;8.680;2023-10-31T20:52:51;11.80;1.00
10231;DHT22;62604;49.432;8.680;2023-10-31T20:55:18;11.90;1.00
10231;DHT22;62604;49.432;8.680;2023-10-31T20:57:45;11.80;1.00
10231;DHT22;62604;49.432;8.680;2023-10-31T21:00:15;11.90;1.00
10231;DHT22;62604;49.432;8.680;2023-10-31T21:02:43;11.90;1.00
10231;DHT22;62604;49.432;8.680;2023-10-31T21:05:11;11.90;1.00
10231;DHT22;62604;49.432;8.680;2023-10-31T21:07:38;11.90;1.00
10231;DHT22;62604;49.432;8.680;2023-10-31T21:10:06;11.90;1.00
10231;DHT22;62604;49.432;8.680;2023-10-31T21:12:33;11.90;1.00
10231;DHT22;62604;49.432;8.680;2023-10-31T21:15:02;11.80;1.00
10231;DHT22;62604;49.432;8.680;2023-10-31T21:17:31;11.80;1.00
10231;DHT22;62604;49.432;8.680;2023-10-31T21:19:58;11.80;1.00
10231;DHT22;62604;49.432;8.680;2023-10-31T21:22:25;11.80;1.00
10231;DHT22;62604;49.432;8.680;2023-10-31T21:24:52;11.80;1.00
10231;DHT22;62604;49.432;8.680;2023-10-31T21:27:20;11.80;1.00
10231;DHT22;62604;49.432;8.680;2023-10-31T21:29:47;11.80;1.00
10231;DHT22;62604;49.432;8.680;2023-10-31T21:32:14;11.70;1.00
10231;DHT22;62604;49.432;8.680;2023-10-31T21:34:42;11.70;99.90
10231;DHT22;62604;49.432;8.680;2023-10-31T21:37:09;11.70;99.90
10231;DHT22;62604;49.432;8.680;2023-10-31T21:39:37;11.70;1.00
10231;DHT22;62604;49.432;8.680;2023-10-31T21:42:05;11.70;1.00
10231;DHT22;62604;49.432;8.680;2023-10-31T21:44:32;11.70;23.20
